Tuskegee Institute, Alabama
Current Conditions -  °F | °C
As of 7:15 AM on Monday 22 Dec 2014 (Local Time) from KAUO Reporting Station
Overcast Overcast  
Wind Chill: 44°   Ceiling: 200
Heat Index: 46°   Visibility: 1.5mi
Dew Point: 43°   Wind: 6mph
Humidity: 87%   Direction: 90°E
Pressure: 30.01"   Gusts: NA
Location:  32.42°N, 85.69°W
Report Text: KAUO 221315Z AUTO 09005KT 1 1/2SM OVC002 08/06 A3001 RMK AO1
Loading
Personal Weather Stations






























Interactive Weather Map New forecast layout! Learn more

10-Day Weather Forecast

Advertisements
Track Severe Weather on mobile